createdAt,value
2019-02-02T00:00:27.384Z,99518.52
2019-02-02T00:00:58.573Z,99516.38
2019-02-02T00:01:29.798Z,99514.67
2019-02-02T00:02:00.998Z,99517.65
2019-02-02T00:02:32.211Z,99515.96
2019-02-02T00:03:03.420Z,99519.40
2019-02-02T00:03:34.624Z,99521.10
2019-02-02T00:04:05.878Z,99524.12
2019-02-02T00:04:37.116Z,99525.41
2019-02-02T00:05:08.318Z,99529.70
2019-02-02T00:05:39.563Z,99531.02
2019-02-02T00:06:10.790Z,99528.91
2019-02-02T00:06:42.016Z,99537.95
2019-02-02T00:07:13.229Z,99533.65
2019-02-02T00:07:44.515Z,99532.79
2019-02-02T00:08:15.715Z,99533.66
2019-02-02T00:08:46.920Z,99529.78
2019-02-02T00:09:18.141Z,99528.92
2019-02-02T00:09:49.346Z,99525.92
2019-02-02T00:10:20.565Z,99522.91
2019-02-02T00:10:51.773Z,99527.23
2019-02-02T00:11:23.020Z,99522.50
2019-02-02T00:11:54.246Z,99524.23
2019-02-02T00:12:25.467Z,99529.38
2019-02-02T00:12:56.678Z,99524.21
2019-02-02T00:13:27.944Z,99521.20
2019-02-02T00:13:59.158Z,99527.22
2019-02-02T00:14:30.358Z,99526.35
2019-02-02T00:15:01.567Z,99525.06
2019-02-02T00:15:32.771Z,99519.93
2019-02-02T00:16:03.984Z,99517.75
2019-02-02T00:16:35.205Z,99517.34
2019-02-02T00:17:06.429Z,99519.47
2019-02-02T00:17:37.651Z,99517.77
2019-02-02T00:18:08.915Z,99513.45
2019-02-02T00:18:40.114Z,99518.61
2019-02-02T00:19:11.339Z,99518.63
2019-02-02T00:19:42.563Z,99521.20
2019-02-02T00:20:13.780Z,99522.92
2019-02-02T00:20:44.999Z,99516.03
2019-02-02T00:21:16.249Z,99517.32
2019-02-02T00:21:47.728Z,99525.91
2019-02-02T00:22:18.938Z,99516.89
2019-02-02T00:22:50.154Z,99520.31
2019-02-02T00:23:21.363Z,99523.34
2019-02-02T00:23:52.586Z,99523.34
2019-02-02T00:24:23.754Z,99525.05
2019-02-02T00:24:55.015Z,99523.34
2019-02-02T00:25:26.221Z,99522.46
2019-02-02T00:25:57.452Z,99521.17
2019-02-02T00:26:28.669Z,99511.72
2019-02-02T00:26:59.873Z,99522.89
2019-02-02T00:27:41.158Z,99516.88
2019-02-02T00:28:04.032Z,99510.87
2019-02-02T00:28:35.238Z,99514.73
2019-02-02T00:29:06.511Z,99510.00
2019-02-02T00:29:37.714Z,99510.01
2019-02-02T00:30:08.920Z,99510.88
2019-02-02T00:30:40.201Z,99504.88
2019-02-02T00:31:11.395Z,99506.60
2019-02-02T00:31:42.631Z,99507.02
2019-02-02T00:32:13.849Z,99505.30
2019-02-02T00:32:45.056Z,99501.42
2019-02-02T00:33:16.292Z,99503.98
2019-02-02T00:33:47.516Z,99501.42
2019-02-02T00:34:18.724Z,99497.98
2019-02-02T00:34:49.927Z,99498.40
2019-02-02T00:35:21.090Z,99500.11
2019-02-02T00:35:52.347Z,99497.95
2019-02-02T00:36:23.575Z,99502.67
2019-02-02T00:36:54.787Z,99496.66
2019-02-02T00:37:26.001Z,99500.09
2019-02-02T00:37:57.210Z,99503.94
2019-02-02T00:38:28.434Z,99503.96
2019-02-02T00:38:59.647Z,99500.09
2019-02-02T00:39:30.869Z,99501.38
2019-02-02T00:40:02.069Z,99503.51
2019-02-02T00:40:33.269Z,99511.68
2019-02-02T00:41:04.530Z,99503.08
2019-02-02T00:41:35.743Z,99505.66
2019-02-02T00:42:06.960Z,99504.34
2019-02-02T00:42:38.242Z,99506.50
2019-02-02T00:43:09.441Z,99506.50
2019-02-02T00:43:40.658Z,99498.77
2019-02-02T00:44:11.861Z,99504.34
2019-02-02T00:44:43.077Z,99506.50
2019-02-02T00:45:14.285Z,99501.31
2019-02-02T00:45:45.496Z,99501.75
2019-02-02T00:46:16.985Z,99501.73
2019-02-02T00:46:48.241Z,99503.05
2019-02-02T00:47:19.451Z,99500.47
2019-02-02T00:47:50.721Z,99493.14
2019-02-02T00:48:21.931Z,99490.57
2019-02-02T00:48:53.187Z,99493.59
2019-02-02T00:49:24.453Z,99492.28
2019-02-02T00:49:55.723Z,99490.56
2019-02-02T00:50:26.930Z,99487.58
2019-02-02T00:50:58.142Z,99487.16
2019-02-02T00:51:29.385Z,99487.58
2019-02-02T00:52:00.590Z,99488.87
2019-02-02T00:52:31.816Z,99490.60
2019-02-02T00:53:03.034Z,99491.45
2019-02-02T00:53:34.329Z,99489.72
2019-02-02T00:54:05.546Z,99493.59
2019-02-02T00:54:36.804Z,99490.19
2019-02-02T00:55:08.015Z,99489.75
2019-02-02T00:55:39.253Z,99490.19
2019-02-02T00:56:10.507Z,99491.91
2019-02-02T00:56:41.719Z,99487.16
2019-02-02T00:57:12.934Z,99490.17
2019-02-02T00:57:53.098Z,99489.72
2019-02-02T00:58:17.072Z,99492.73
2019-02-02T00:58:48.289Z,99486.73
2019-02-02T00:59:19.498Z,99489.30
2019-02-02T00:59:50.702Z,99481.99
2019-02-02T01:00:21.920Z,99485.84
2019-02-02T01:00:53.196Z,99480.67
2019-02-02T01:01:24.422Z,99477.67
2019-02-02T01:01:55.632Z,99482.39
2019-02-02T01:02:26.846Z,99480.68
2019-02-02T01:02:58.064Z,99472.93
2019-02-02T01:03:29.282Z,99472.90
2019-02-02T01:04:00.491Z,99472.89
2019-02-02T01:04:31.719Z,99476.77
2019-02-02T01:05:02.923Z,99481.06
2019-02-02T01:05:34.124Z,99481.47
2019-02-02T01:06:05.445Z,99483.64
2019-02-02T01:06:36.666Z,99486.65
2019-02-02T01:07:07.888Z,99482.33
2019-02-02T01:07:39.106Z,99487.92
2019-02-02T01:08:10.301Z,99487.89
2019-02-02T01:08:41.529Z,99491.77
2019-02-02T01:09:12.775Z,99489.19
2019-02-02T01:09:43.984Z,99491.77
2019-02-02T01:10:15.181Z,99492.20
2019-02-02T01:10:46.403Z,99495.20
2019-02-02T01:11:17.655Z,99493.50
2019-02-02T01:11:48.867Z,99494.34
2019-02-02T01:12:20.079Z,99494.37
2019-02-02T01:12:51.307Z,99499.06
2019-02-02T01:13:22.523Z,99496.91
2019-02-02T01:13:53.806Z,99499.94
2019-02-02T01:14:25.005Z,99497.36
2019-02-02T01:14:56.329Z,99502.92
2019-02-02T01:15:27.534Z,99502.92
2019-02-02T01:15:58.758Z,99504.63
2019-02-02T01:16:29.979Z,99506.80
2019-02-02T01:17:01.179Z,99505.06
2019-02-02T01:17:32.384Z,99503.80
2019-02-02T01:18:03.650Z,99506.81
2019-02-02T01:18:34.858Z,99501.66
2019-02-02T01:19:06.087Z,99498.22
2019-02-02T01:19:37.298Z,99497.80
2019-02-02T01:20:08.496Z,99494.37
2019-02-02T01:20:39.712Z,99491.34
2019-02-02T01:21:10.916Z,99493.08
2019-02-02T01:21:42.130Z,99494.37
2019-02-02T01:22:13.358Z,99498.22
2019-02-02T01:22:44.559Z,99490.89
2019-02-02T01:23:15.817Z,99495.63
2019-02-02T01:23:47.025Z,99494.35
2019-02-02T01:24:18.238Z,99494.78
2019-02-02T01:24:49.442Z,99496.08
2019-02-02T01:25:20.652Z,99499.05
2019-02-02T01:25:51.858Z,99491.73
2019-02-02T01:26:23.067Z,99490.45
2019-02-02T01:26:54.257Z,99489.17
2019-02-02T01:27:25.465Z,99490.03
2019-02-02T01:28:04.952Z,99488.33
2019-02-02T01:28:29.652Z,99489.20
2019-02-02T01:29:00.874Z,99484.05
2019-02-02T01:29:32.078Z,99484.48
2019-02-02T01:30:03.304Z,99478.03
2019-02-02T01:30:34.528Z,99478.02
2019-02-02T01:31:05.738Z,99475.85
2019-02-02T01:31:36.949Z,99474.59
2019-02-02T01:32:08.197Z,99475.87
2019-02-02T01:32:39.434Z,99479.34
2019-02-02T01:33:10.636Z,99480.63
2019-02-02T01:33:41.897Z,99483.20
2019-02-02T01:34:13.108Z,99489.20
2019-02-02T01:34:44.315Z,99484.47
2019-02-02T01:35:15.515Z,99489.20
2019-02-02T01:35:46.727Z,99489.19
2019-02-02T01:36:17.955Z,99490.48
2019-02-02T01:36:49.169Z,99483.17
2019-02-02T01:37:20.419Z,99484.00
2019-02-02T01:37:51.631Z,99477.99
2019-02-02T01:38:22.838Z,99478.01
2019-02-02T01:38:54.065Z,99477.58
2019-02-02T01:39:25.292Z,99479.73
2019-02-02T01:39:56.490Z,99471.12
2019-02-02T01:40:27.699Z,99476.31
2019-02-02T01:40:58.910Z,99469.43
2019-02-02T01:41:30.124Z,99469.00
2019-02-02T01:42:01.340Z,99468.56
2019-02-02T01:42:32.599Z,99464.30
2019-02-02T01:43:03.821Z,99467.73
2019-02-02T01:43:35.056Z,99467.72
2019-02-02T01:44:06.312Z,99472.03
2019-02-02T01:44:37.572Z,99466.87
2019-02-02T01:45:08.779Z,99470.31
2019-02-02T01:45:39.991Z,99465.59
2019-02-02T01:46:11.202Z,99463.05
2019-02-02T01:46:42.402Z,99461.76
2019-02-02T01:47:13.606Z,99463.06
2019-02-02T01:47:44.818Z,99458.33
2019-02-02T01:48:16.070Z,99465.64
2019-02-02T01:48:47.275Z,99462.64
2019-02-02T01:49:18.486Z,99455.75
2019-02-02T01:49:49.693Z,99459.19
2019-02-02T01:50:20.933Z,99467.78
2019-02-02T01:50:52.143Z,99458.31
2019-02-02T01:51:23.363Z,99463.05
2019-02-02T01:51:54.571Z,99463.48
2019-02-02T01:52:25.803Z,99469.93
2019-02-02T01:52:57.062Z,99464.35
2019-02-02T01:53:28.285Z,99467.80
2019-02-02T01:53:59.498Z,99476.40
2019-02-02T01:54:30.723Z,99475.56
2019-02-02T01:55:01.924Z,99466.11
2019-02-02T01:55:33.199Z,99468.28
2019-02-02T01:56:04.403Z,99471.70
2019-02-02T01:56:35.622Z,99466.56
2019-02-02T01:57:06.837Z,99469.61
2019-02-02T01:57:38.046Z,99471.33
2019-02-02T01:58:16.315Z,99467.03
2019-02-02T01:58:42.203Z,99469.19
2019-02-02T01:59:13.412Z,99467.05
2019-02-02T01:59:44.644Z,99467.91
2019-02-02T02:00:15.882Z,99472.20
2019-02-02T02:00:47.123Z,99467.50
2019-02-02T02:01:18.348Z,99467.91
2019-02-02T02:01:49.537Z,99473.08
2019-02-02T02:02:20.749Z,99472.20
2019-02-02T02:02:51.980Z,99476.08
2019-02-02T02:03:23.192Z,99475.20
2019-02-02T02:03:54.422Z,99471.78
2019-02-02T02:04:25.637Z,99477.35
2019-02-02T02:04:56.859Z,99473.94
2019-02-02T02:05:28.062Z,99478.23
2019-02-02T02:05:59.336Z,99471.78
2019-02-02T02:06:30.559Z,99474.38
2019-02-02T02:07:01.798Z,99479.52
2019-02-02T02:07:33.021Z,99483.38
2019-02-02T02:08:04.224Z,99485.97
2019-02-02T02:08:35.494Z,99484.25
2019-02-02T02:09:06.741Z,99490.70
2019-02-02T02:09:37.967Z,99488.13
2019-02-02T02:10:09.202Z,99491.58
2019-02-02T02:10:40.541Z,99488.13
2019-02-02T02:11:11.735Z,99484.69
2019-02-02T02:11:42.957Z,99487.27
2019-02-02T02:12:14.233Z,99486.42
2019-02-02T02:12:45.435Z,99483.00
2019-02-02T02:13:16.647Z,99486.86
2019-02-02T02:13:47.909Z,99478.24
2019-02-02T02:14:19.122Z,99475.25
2019-02-02T02:14:50.321Z,99476.98
2019-02-02T02:15:21.522Z,99473.55
2019-02-02T02:15:52.724Z,99470.09
2019-02-02T02:16:23.953Z,99471.37
2019-02-02T02:16:55.153Z,99468.80
2019-02-02T02:17:26.368Z,99461.94
2019-02-02T02:17:57.591Z,99473.08
2019-02-02T02:18:28.813Z,99467.92
2019-02-02T02:19:00.062Z,99465.34
2019-02-02T02:19:31.316Z,99471.80
2019-02-02T02:20:02.544Z,99472.66
2019-02-02T02:20:33.737Z,99469.23
2019-02-02T02:21:04.942Z,99473.49
2019-02-02T02:21:36.163Z,99470.06
2019-02-02T02:22:07.374Z,99475.22
2019-02-02T02:22:41.202Z,99468.78
2019-02-02T02:23:11.595Z,99467.91
2019-02-02T02:23:42.825Z,99474.78
2019-02-02T02:24:14.027Z,99470.92
2019-02-02T02:24:45.237Z,99469.63
2019-02-02T02:25:16.452Z,99470.03
2019-02-02T02:25:47.695Z,99471.34
2019-02-02T02:26:18.898Z,99463.18
2019-02-02T02:26:50.101Z,99465.77
2019-02-02T02:27:21.316Z,99468.34
2019-02-02T02:27:52.546Z,99468.34
2019-02-02T02:28:28.329Z,99466.16
2019-02-02T02:28:56.738Z,99472.16
2019-02-02T02:29:27.970Z,99465.70
2019-02-02T02:29:59.170Z,99472.58
2019-02-02T02:30:30.436Z,99469.13
2019-02-02T02:31:01.629Z,99469.14
2019-02-02T02:31:32.841Z,99467.86
2019-02-02T02:32:04.047Z,99457.95
2019-02-02T02:32:35.282Z,99463.56
2019-02-02T02:33:06.497Z,99456.25
2019-02-02T02:33:37.693Z,99458.41
2019-02-02T02:34:08.958Z,99453.27
2019-02-02T02:34:40.158Z,99454.13
2019-02-02T02:35:11.365Z,99455.84
2019-02-02T02:35:42.587Z,99457.12
2019-02-02T02:36:13.806Z,99456.70
2019-02-02T02:36:45.025Z,99461.01
2019-02-02T02:37:16.228Z,99460.56
2019-02-02T02:37:47.457Z,99465.30
2019-02-02T02:38:18.652Z,99464.05
2019-02-02T02:38:49.885Z,99465.31
2019-02-02T02:39:21.109Z,99467.91
2019-02-02T02:39:52.315Z,99467.91
2019-02-02T02:40:23.541Z,99469.63
2019-02-02T02:40:54.996Z,99467.07
2019-02-02T02:41:26.203Z,99466.67
2019-02-02T02:41:57.410Z,99465.81
2019-02-02T02:42:28.645Z,99471.38
2019-02-02T02:42:59.859Z,99470.97
2019-02-02T02:43:31.067Z,99466.23
2019-02-02T02:44:02.290Z,99470.09
2019-02-02T02:44:33.544Z,99471.81
2019-02-02T02:45:04.753Z,99467.94
2019-02-02T02:45:35.976Z,99477.39
2019-02-02T02:46:07.196Z,99482.13
2019-02-02T02:46:38.398Z,99476.13
2019-02-02T02:47:09.608Z,99480.83
2019-02-02T02:47:40.833Z,99476.52
2019-02-02T02:48:12.077Z,99482.55
2019-02-02T02:48:43.326Z,99484.67
2019-02-02T02:49:14.524Z,99479.11
2019-02-02T02:49:45.738Z,99487.71
2019-02-02T02:50:16.956Z,99478.26
2019-02-02T02:50:48.191Z,99490.28
2019-02-02T02:51:19.515Z,99484.25
2019-02-02T02:51:50.756Z,99488.55
2019-02-02T02:52:21.981Z,99486.83
2019-02-02T02:52:53.186Z,99487.27
2019-02-02T02:53:24.408Z,99487.71
2019-02-02T02:53:55.618Z,99483.41
2019-02-02T02:54:26.845Z,99479.10
2019-02-02T02:54:58.070Z,99480.83
2019-02-02T02:55:29.283Z,99481.67
2019-02-02T02:56:00.515Z,99478.23
2019-02-02T02:56:32.440Z,99486.41
2019-02-02T02:57:03.678Z,99479.53
2019-02-02T02:57:34.911Z,99480.38
2019-02-02T02:58:06.127Z,99484.25
2019-02-02T02:58:41.483Z,99481.68
2019-02-02T02:59:10.291Z,99485.53
2019-02-02T02:59:41.521Z,99493.27
2019-02-02T03:00:12.739Z,99488.56
2019-02-02T03:00:43.963Z,99485.55
2019-02-02T03:01:15.167Z,99488.12
2019-02-02T03:01:46.387Z,99488.58
2019-02-02T03:02:17.591Z,99495.88
2019-02-02T03:02:48.797Z,99496.72
2019-02-02T03:03:19.999Z,99494.58
2019-02-02T03:03:51.263Z,99498.87
2019-02-02T03:04:22.479Z,99499.32
2019-02-02T03:04:53.691Z,99498.44
2019-02-02T03:05:24.914Z,99498.89
2019-02-02T03:05:56.122Z,99500.61
2019-02-02T03:06:27.338Z,99501.02
2019-02-02T03:06:58.561Z,99495.88
2019-02-02T03:07:29.784Z,99496.73
2019-02-02T03:08:01.053Z,99502.34
2019-02-02T03:08:32.281Z,99502.34
2019-02-02T03:09:03.503Z,99500.61
2019-02-02T03:09:34.713Z,99498.87
2019-02-02T03:10:05.910Z,99500.61
2019-02-02T03:10:37.151Z,99493.31
2019-02-02T03:11:08.365Z,99494.18
2019-02-02T03:11:39.604Z,99498.89
2019-02-02T03:12:10.803Z,99502.76
2019-02-02T03:12:42.007Z,99502.31
2019-02-02T03:13:13.290Z,99501.44
2019-02-02T03:13:44.495Z,99504.47
2019-02-02T03:14:15.709Z,99507.05
2019-02-02T03:14:46.943Z,99506.61
2019-02-02T03:15:18.145Z,99507.45
2019-02-02T03:15:49.348Z,99501.03
2019-02-02T03:16:20.550Z,99509.20
2019-02-02T03:16:51.755Z,99503.61
2019-02-02T03:17:22.964Z,99506.19
2019-02-02T03:17:54.186Z,99503.59
2019-02-02T03:18:25.439Z,99502.73
2019-02-02T03:18:56.671Z,99503.15
2019-02-02T03:19:27.934Z,99504.45
2019-02-02T03:19:59.141Z,99506.58
2019-02-02T03:20:30.360Z,99504.00
2019-02-02T03:21:01.619Z,99500.58
2019-02-02T03:21:32.835Z,99505.30
2019-02-02T03:22:04.068Z,99502.72
2019-02-02T03:22:35.285Z,99498.02
2019-02-02T03:23:06.495Z,99501.43
2019-02-02T03:23:37.701Z,99505.73
2019-02-02T03:24:08.917Z,99499.70
2019-02-02T03:24:40.144Z,99497.16
2019-02-02T03:25:11.549Z,99498.00
2019-02-02T03:25:42.775Z,99503.59
2019-02-02T03:26:13.986Z,99501.87
2019-02-02T03:26:45.203Z,99501.42
2019-02-02T03:27:16.416Z,99495.42
2019-02-02T03:27:47.625Z,99498.00
2019-02-02T03:28:18.840Z,99496.70
2019-02-02T03:28:53.501Z,99491.15
2019-02-02T03:29:23.023Z,99496.30
2019-02-02T03:29:54.230Z,99496.73
2019-02-02T03:30:25.487Z,99495.00
2019-02-02T03:31:52.635Z,99495.43
2019-02-02T03:32:23.854Z,99496.31
2019-02-02T03:32:55.072Z,99492.44
2019-02-02T03:33:26.327Z,99491.58
2019-02-02T03:33:57.576Z,99485.16
2019-02-02T03:34:28.808Z,99491.59
2019-02-02T03:35:00.036Z,99486.88
2019-02-02T03:35:31.249Z,99484.30
2019-02-02T03:36:02.507Z,99489.03
2019-02-02T03:36:33.735Z,99487.30
2019-02-02T03:37:04.955Z,99486.88
2019-02-02T03:37:36.164Z,99486.44
2019-02-02T03:38:07.371Z,99487.71
2019-02-02T03:38:38.595Z,99493.73
2019-02-02T03:39:09.793Z,99485.16
2019-02-02T03:39:41.005Z,99482.56
2019-02-02T03:40:12.234Z,99486.00
2019-02-02T03:40:43.437Z,99486.88
2019-02-02T03:41:14.720Z,99491.14
2019-02-02T03:41:45.905Z,99491.57
2019-02-02T03:42:17.125Z,99496.31
2019-02-02T03:42:48.335Z,99497.58
2019-02-02T03:43:19.573Z,99496.32
2019-02-02T03:43:50.789Z,99499.30
2019-02-02T03:44:22.010Z,99495.02
2019-02-02T03:44:53.260Z,99501.90
2019-02-02T03:45:24.511Z,99498.87
2019-02-02T03:45:55.751Z,99495.86
2019-02-02T03:46:27.004Z,99502.32
2019-02-02T03:46:58.222Z,99498.86
2019-02-02T03:47:29.448Z,99503.17
2019-02-02T03:48:00.719Z,99502.30
2019-02-02T03:48:31.935Z,99504.87
2019-02-02T03:49:03.158Z,99501.44
2019-02-02T03:49:34.397Z,99497.14
2019-02-02T03:50:05.623Z,99496.73
2019-02-02T03:50:36.837Z,99491.13
2019-02-02T03:51:08.078Z,99493.28
2019-02-02T03:51:39.317Z,99493.72
2019-02-02T03:52:10.559Z,99492.42
2019-02-02T03:52:41.773Z,99490.30
2019-02-02T03:53:13.033Z,99485.14
2019-02-02T03:53:44.349Z,99486.83
2019-02-02T03:54:15.526Z,99486.84
2019-02-02T03:54:46.737Z,99483.41
2019-02-02T03:55:18.004Z,99485.09
2019-02-02T03:55:49.294Z,99486.81
2019-02-02T03:56:20.485Z,99479.08
2019-02-02T03:56:51.699Z,99479.08
2019-02-02T03:57:22.916Z,99479.52
2019-02-02T03:57:54.142Z,99480.80
2019-02-02T03:58:25.353Z,99480.38
2019-02-02T03:59:06.127Z,99484.27
2019-02-02T03:59:29.707Z,99484.25
2019-02-02T04:00:00.889Z,99486.85
2019-02-02T04:00:32.146Z,99485.56
2019-02-02T04:01:03.362Z,99488.14
2019-02-02T04:01:34.579Z,99487.28
2019-02-02T04:02:05.789Z,99489.41
2019-02-02T04:02:37.005Z,99483.83
2019-02-02T04:03:08.210Z,99483.39
2019-02-02T04:03:39.425Z,99482.56
2019-02-02T04:04:10.649Z,99485.13
2019-02-02T04:04:41.937Z,99477.39
2019-02-02T04:05:13.165Z,99480.81
2019-02-02T04:05:44.370Z,99478.25
2019-02-02T04:06:15.580Z,99485.97
2019-02-02T04:06:46.792Z,99482.09
2019-02-02T04:07:18.012Z,99482.11
2019-02-02T04:07:49.218Z,99481.66
2019-02-02T04:08:20.422Z,99478.64
2019-02-02T04:08:51.645Z,99476.49
2019-02-02T04:09:22.846Z,99479.95
2019-02-02T04:09:54.106Z,99483.78
2019-02-02T04:10:25.317Z,99478.20
2019-02-02T04:10:56.527Z,99481.63
2019-02-02T04:11:27.740Z,99479.92
2019-02-02T04:11:58.945Z,99478.22
2019-02-02T04:12:30.182Z,99479.07
2019-02-02T04:13:01.383Z,99476.08
2019-02-02T04:13:32.594Z,99473.07
2019-02-02T04:14:04.821Z,99469.67
2019-02-02T04:14:36.053Z,99476.95
2019-02-02T04:15:07.318Z,99473.95
2019-02-02T04:15:38.517Z,99478.25
2019-02-02T04:16:09.724Z,99473.93
2019-02-02T04:16:40.945Z,99478.22
2019-02-02T04:17:12.170Z,99478.23
2019-02-02T04:17:43.381Z,99470.49
2019-02-02T04:18:14.587Z,99471.34
2019-02-02T04:18:45.802Z,99473.08
2019-02-02T04:19:17.015Z,99471.36
2019-02-02T04:19:48.277Z,99472.22
2019-02-02T04:20:19.497Z,99470.50
2019-02-02T04:20:50.721Z,99473.93
2019-02-02T04:21:21.993Z,99476.49
2019-02-02T04:21:53.200Z,99479.06
2019-02-02T04:22:24.423Z,99472.63
2019-02-02T04:22:55.633Z,99476.08
2019-02-02T04:23:26.854Z,99476.92
2019-02-02T04:23:58.065Z,99472.65
2019-02-02T04:24:29.273Z,99477.38
2019-02-02T04:25:00.526Z,99473.06
2019-02-02T04:25:31.778Z,99470.47
2019-02-02T04:26:02.989Z,99463.61
2019-02-02T04:26:34.206Z,99465.31
2019-02-02T04:27:05.414Z,99467.05
2019-02-02T04:27:36.635Z,99466.60
2019-02-02T04:28:07.872Z,99466.17
2019-02-02T04:28:39.076Z,99465.31
2019-02-02T04:29:17.614Z,99466.17
2019-02-02T04:29:43.288Z,99466.60
2019-02-02T04:30:14.500Z,99463.61
2019-02-02T04:30:45.736Z,99470.89
2019-02-02T04:31:16.945Z,99471.33
2019-02-02T04:31:48.142Z,99473.05
2019-02-02T04:32:21.435Z,99471.77
2019-02-02T04:32:52.694Z,99465.73
2019-02-02T04:33:23.912Z,99470.90
2019-02-02T04:33:55.106Z,99470.89
2019-02-02T04:34:26.331Z,99469.59
2019-02-02T04:34:57.592Z,99463.98
2019-02-02T04:35:28.817Z,99471.73
2019-02-02T04:36:02.173Z,99469.58
2019-02-02T04:36:33.379Z,99470.44
2019-02-02T04:37:04.590Z,99466.99
2019-02-02T04:37:38.215Z,99466.59
2019-02-02T04:38:08.739Z,99472.19
2019-02-02T04:38:40.004Z,99468.73
2019-02-02T04:39:11.230Z,99478.22
2019-02-02T04:39:42.455Z,99470.45
2019-02-02T04:40:13.694Z,99470.89
2019-02-02T04:40:44.964Z,99467.89
2019-02-02T04:41:16.177Z,99469.17
2019-02-02T04:41:47.388Z,99467.03
2019-02-02T04:42:18.600Z,99461.00
2019-02-02T04:42:49.823Z,99466.16
2019-02-02T04:43:21.016Z,99466.61
2019-02-02T04:43:52.226Z,99463.59
2019-02-02T04:44:23.453Z,99460.16
2019-02-02T04:44:54.671Z,99462.28
2019-02-02T04:45:25.933Z,99459.30
2019-02-02T04:45:57.168Z,99462.27
2019-02-02T04:46:28.392Z,99461.01
2019-02-02T04:46:59.606Z,99464.44
2019-02-02T04:47:30.821Z,99462.70
2019-02-02T04:48:02.031Z,99464.86
2019-02-02T04:48:33.261Z,99467.44
2019-02-02T04:49:04.471Z,99467.44
2019-02-02T04:49:35.671Z,99466.16
2019-02-02T04:50:06.876Z,99467.02
2019-02-02T04:50:38.127Z,99465.30
2019-02-02T04:51:09.335Z,99469.61
2019-02-02T04:51:40.549Z,99473.45
2019-02-02T04:52:11.759Z,99469.20
2019-02-02T04:52:42.984Z,99464.91
2019-02-02T04:53:14.196Z,99471.36
2019-02-02T04:53:45.401Z,99472.66
2019-02-02T04:54:16.602Z,99476.53
2019-02-02T04:54:47.835Z,99476.52
2019-02-02T04:55:19.050Z,99471.80
2019-02-02T04:55:50.263Z,99477.82
2019-02-02T04:56:21.468Z,99476.52
2019-02-02T04:56:52.688Z,99480.83
2019-02-02T04:57:23.885Z,99482.09
2019-02-02T04:57:55.122Z,99477.80
2019-02-02T04:58:26.333Z,99485.97
2019-02-02T04:58:57.556Z,99473.93
2019-02-02T04:59:29.594Z,99488.54
2019-02-02T05:00:00.946Z,99479.09
2019-02-02T05:00:32.209Z,99482.53
2019-02-02T05:01:03.421Z,99480.80
2019-02-02T05:01:34.643Z,99483.83
2019-02-02T05:02:05.856Z,99484.27
2019-02-02T05:02:37.110Z,99480.38
2019-02-02T05:03:08.313Z,99480.38
2019-02-02T05:03:39.512Z,99476.53
2019-02-02T05:04:10.723Z,99482.53
2019-02-02T05:04:41.939Z,99484.27
2019-02-02T05:05:13.162Z,99476.94
2019-02-02T05:05:44.371Z,99483.81
2019-02-02T05:06:15.615Z,99483.38
2019-02-02T05:06:46.782Z,99478.67
2019-02-02T05:07:17.994Z,99479.53
2019-02-02T05:07:49.199Z,99477.80
2019-02-02T05:08:20.405Z,99476.96
2019-02-02T05:08:51.661Z,99482.09
2019-02-02T05:09:22.882Z,99477.83
2019-02-02T05:09:54.013Z,99479.95
2019-02-02T05:10:25.246Z,99480.39
2019-02-02T05:10:56.447Z,99479.52
2019-02-02T05:11:27.667Z,99478.23
2019-02-02T05:11:58.949Z,99473.52
2019-02-02T05:12:30.182Z,99476.52
2019-02-02T05:13:01.368Z,99474.38
2019-02-02T05:13:32.583Z,99474.38
2019-02-02T05:14:03.792Z,99471.38
2019-02-02T05:14:35.004Z,99473.10
2019-02-02T05:15:06.230Z,99474.41
2019-02-02T05:15:37.432Z,99471.84
2019-02-02T05:16:08.631Z,99465.39
2019-02-02T05:16:39.894Z,99473.98
2019-02-02T05:17:11.115Z,99472.69
2019-02-02T05:17:42.316Z,99482.98
2019-02-02T05:18:13.545Z,99476.98
2019-02-02T05:18:44.732Z,99476.55
2019-02-02T05:19:15.985Z,99478.70
2019-02-02T05:19:47.199Z,99479.13
2019-02-02T05:20:18.413Z,99481.27
2019-02-02T05:20:49.627Z,99487.71
2019-02-02T05:21:20.834Z,99480.41
2019-02-02T05:21:52.035Z,99480.83
2019-02-02T05:22:23.238Z,99479.12
2019-02-02T05:22:54.462Z,99478.26
2019-02-02T05:23:25.674Z,99483.00
2019-02-02T05:23:56.915Z,99479.56
2019-02-02T05:24:28.108Z,99482.56
2019-02-02T05:24:59.304Z,99483.00
2019-02-02T05:25:30.571Z,99482.14
2019-02-02T05:26:01.790Z,99481.28
2019-02-02T05:26:33.007Z,99485.58
2019-02-02T05:27:04.208Z,99486.02
2019-02-02T05:27:35.425Z,99483.86
2019-02-02T05:28:06.640Z,99482.56
2019-02-02T05:28:37.853Z,99486.84
2019-02-02T05:29:09.079Z,99486.41
2019-02-02T05:29:41.796Z,99487.70
2019-02-02T05:30:13.174Z,99481.70
2019-02-02T05:30:44.425Z,99480.86
2019-02-02T05:31:15.638Z,99481.27
2019-02-02T05:31:46.858Z,99486.85
2019-02-02T05:32:18.066Z,99484.72
2019-02-02T05:32:49.283Z,99487.71
2019-02-02T05:33:20.510Z,99490.29
2019-02-02T05:33:53.724Z,99487.27
2019-02-02T05:34:24.663Z,99487.70
2019-02-02T05:34:55.858Z,99492.01
2019-02-02T05:35:27.113Z,99492.87
2019-02-02T05:35:58.370Z,99491.14
2019-02-02T05:36:29.582Z,99488.14
2019-02-02T05:37:00.783Z,99490.27
2019-02-02T05:37:32.003Z,99490.27
2019-02-02T05:38:03.215Z,99485.52
2019-02-02T05:38:34.497Z,99481.21
2019-02-02T05:39:05.705Z,99496.20
2019-02-02T05:39:36.955Z,99489.78
2019-02-02T05:40:08.171Z,99485.02
2019-02-02T05:40:39.363Z,99487.16
2019-02-02T05:41:10.576Z,99489.73
2019-02-02T05:41:41.801Z,99494.01
2019-02-02T05:42:13.018Z,99496.15
2019-02-02T05:42:44.226Z,99492.29
2019-02-02T05:43:15.478Z,99494.42
2019-02-02T05:43:46.698Z,99498.27
2019-02-02T05:44:17.910Z,99491.43
2019-02-02T05:44:49.134Z,99492.74
2019-02-02T05:45:20.408Z,99494.03
2019-02-02T05:45:51.583Z,99494.91
2019-02-02T05:46:22.784Z,99498.75
2019-02-02T05:46:53.995Z,99492.33
2019-02-02T05:47:25.254Z,99495.33
2019-02-02T05:47:56.480Z,99498.37
2019-02-02T05:48:27.707Z,99495.78
2019-02-02T05:48:58.915Z,99501.39
2019-02-02T05:49:30.170Z,99499.69
2019-02-02T05:50:01.378Z,99501.41
2019-02-02T05:50:32.597Z,99501.40
2019-02-02T05:51:03.818Z,99502.27
2019-02-02T05:51:35.032Z,99502.70
2019-02-02T05:52:06.306Z,99504.42
2019-02-02T05:52:37.499Z,99511.30
2019-02-02T05:53:08.730Z,99509.59
2019-02-02T05:53:39.927Z,99508.30
2019-02-02T05:54:11.151Z,99502.70
2019-02-02T05:54:42.387Z,99507.88
2019-02-02T05:55:13.600Z,99509.16
2019-02-02T05:55:44.792Z,99507.02
2019-02-02T05:56:18.311Z,99510.45
2019-02-02T05:56:49.535Z,99517.77
2019-02-02T05:57:20.783Z,99518.20
2019-02-02T05:57:51.983Z,99523.78
2019-02-02T05:58:23.203Z,99523.77
2019-02-02T05:58:54.437Z,99525.05
2019-02-02T05:59:25.696Z,99520.79
2019-02-02T05:59:56.913Z,99523.36
2019-02-02T06:00:28.127Z,99522.52
2019-02-02T06:00:59.337Z,99528.94
2019-02-02T06:01:30.562Z,99523.80
2019-02-02T06:02:01.793Z,99531.10
2019-02-02T06:02:32.986Z,99529.81
2019-02-02T06:03:04.219Z,99529.80
2019-02-02T06:03:35.570Z,99532.37
2019-02-02T06:04:06.789Z,99525.92
2019-02-02T06:04:38.023Z,99528.95
2019-02-02T06:05:09.219Z,99527.65
2019-02-02T06:05:40.478Z,99529.81
2019-02-02T06:06:11.694Z,99530.67
2019-02-02T06:06:42.919Z,99525.52
2019-02-02T06:07:14.138Z,99523.80
2019-02-02T06:07:45.356Z,99525.08
2019-02-02T06:08:16.576Z,99527.21